createdAt,value
2022-09-28T00:00:13.525Z,98.14
2022-09-28T00:01:13.517Z,98.66
2022-09-28T00:02:13.696Z,98.55
2022-09-28T00:03:13.539Z,98.70
2022-09-28T00:04:13.465Z,98.76
2022-09-28T00:05:13.458Z,98.80
2022-09-28T00:06:13.458Z,98.24
2022-09-28T00:07:13.436Z,98.08
2022-09-28T00:08:13.466Z,97.98
2022-09-28T00:09:13.464Z,98.19
2022-09-28T00:10:13.397Z,97.88
2022-09-28T00:11:13.388Z,98.08
2022-09-28T00:12:13.409Z,98.08
2022-09-28T00:13:13.384Z,98.19
2022-09-28T00:14:13.348Z,98.08
2022-09-28T00:15:13.368Z,97.98
2022-09-28T00:16:13.409Z,97.67
2022-09-28T00:17:13.315Z,97.67
2022-09-28T00:18:13.369Z,97.77
2022-09-28T00:19:13.446Z,97.67
2022-09-28T00:20:13.277Z,98.13
2022-09-28T00:21:13.269Z,98.13
2022-09-28T00:22:13.260Z,98.08
2022-09-28T00:23:13.251Z,98.23
2022-09-28T00:24:13.286Z,98.08
2022-09-28T00:25:13.231Z,98.29
2022-09-28T00:26:13.217Z,98.39
2022-09-28T00:27:13.204Z,98.85
2022-09-28T00:28:13.195Z,98.60
2022-09-28T00:29:13.277Z,98.60
2022-09-28T00:30:13.182Z,98.50
2022-09-28T00:31:13.230Z,98.50
2022-09-28T00:32:13.146Z,98.91
2022-09-28T00:33:13.132Z,99.37
2022-09-28T00:34:13.150Z,99.11
2022-09-28T00:35:13.115Z,98.80
2022-09-28T00:36:13.112Z,98.91
2022-09-28T00:37:13.090Z,99.01
2022-09-28T00:38:13.078Z,99.22
2022-09-28T00:39:13.114Z,98.80
2022-09-28T00:40:13.074Z,98.80
2022-09-28T00:41:13.041Z,99.16
2022-09-28T00:42:13.185Z,99.01
2022-09-28T00:43:13.023Z,98.80
2022-09-28T00:44:13.025Z,98.60
2022-09-28T00:45:12.994Z,99.11
2022-09-28T00:46:13.029Z,99.11
2022-09-28T00:47:12.992Z,98.70
2022-09-28T00:48:12.975Z,98.70
2022-09-28T00:49:13.062Z,99.01
2022-09-28T00:50:12.941Z,99.11
2022-09-28T00:51:12.930Z,99.01
2022-09-28T00:52:12.919Z,99.01
2022-09-28T00:53:12.908Z,98.60
2022-09-28T00:54:12.929Z,99.11
2022-09-28T00:55:12.901Z,98.39
2022-09-28T00:56:12.870Z,98.50
2022-09-28T00:57:12.861Z,98.50
2022-09-28T00:58:12.845Z,98.29
2022-09-28T00:59:12.895Z,98.03
2022-09-28T01:00:12.828Z,97.98
2022-09-28T01:01:12.931Z,98.19
2022-09-28T01:02:12.815Z,98.08
2022-09-28T01:03:12.809Z,97.98
2022-09-28T01:04:12.780Z,97.98
2022-09-28T01:05:12.788Z,98.29
2022-09-28T01:06:12.770Z,98.08
2022-09-28T01:07:12.755Z,98.50
2022-09-28T01:08:12.734Z,98.50
2022-09-28T01:09:12.725Z,97.98
2022-09-28T01:10:12.733Z,98.03
2022-09-28T01:11:12.702Z,98.08
2022-09-28T01:12:12.702Z,97.67
2022-09-28T01:13:12.679Z,97.94
2022-09-28T01:14:12.669Z,98.08
2022-09-28T01:15:12.676Z,97.88
2022-09-28T01:16:12.681Z,97.98
2022-09-28T01:17:12.629Z,98.19
2022-09-28T01:18:12.634Z,97.98
2022-09-28T01:19:12.725Z,98.19
2022-09-28T01:20:12.615Z,98.14
2022-09-28T01:21:12.588Z,98.03
2022-09-28T01:22:12.597Z,98.08
2022-09-28T01:23:12.562Z,98.19
2022-09-28T01:24:12.572Z,98.24
2022-09-28T01:25:12.566Z,98.14
2022-09-28T01:26:12.537Z,98.14
2022-09-28T01:27:12.526Z,98.55
2022-09-28T01:28:12.511Z,98.80
2022-09-28T01:29:12.510Z,98.24
2022-09-28T01:30:12.518Z,98.76
2022-09-28T01:31:12.522Z,98.35
2022-09-28T01:32:12.511Z,98.86
2022-09-28T01:33:12.479Z,98.66
2022-09-28T01:34:12.442Z,98.66
2022-09-28T01:35:12.449Z,98.76
2022-09-28T01:36:12.448Z,98.66
2022-09-28T01:37:12.408Z,98.76
2022-09-28T01:38:12.401Z,98.45
2022-09-28T01:39:12.409Z,97.94
2022-09-28T01:40:12.378Z,98.24
2022-09-28T01:41:12.367Z,98.24
2022-09-28T01:42:12.364Z,97.63
2022-09-28T01:43:13.012Z,98.08
2022-09-28T01:44:12.330Z,98.29
2022-09-28T01:45:12.317Z,98.19
2022-09-28T01:46:12.399Z,97.98
2022-09-28T01:47:12.302Z,97.98
2022-09-28T01:48:12.299Z,97.98
2022-09-28T01:49:12.277Z,97.98
2022-09-28T01:50:12.281Z,97.92
2022-09-28T01:51:12.271Z,97.88
2022-09-28T01:52:12.261Z,97.82
2022-09-28T01:53:12.229Z,97.92
2022-09-28T01:54:12.221Z,98.33
2022-09-28T01:55:12.212Z,98.23
2022-09-28T01:56:12.194Z,98.13
2022-09-28T01:57:12.201Z,98.23
2022-09-28T01:58:12.204Z,98.23
2022-09-28T01:59:12.160Z,98.13
2022-09-28T02:00:12.156Z,98.13
2022-09-28T02:01:12.211Z,98.23
2022-09-28T02:02:12.200Z,98.02
2022-09-28T02:03:12.113Z,98.33
2022-09-28T02:04:12.107Z,98.23
2022-09-28T02:05:12.098Z,98.13
2022-09-28T02:06:12.082Z,98.02
2022-09-28T02:07:12.111Z,98.33
2022-09-28T02:08:12.061Z,98.28
2022-09-28T02:09:12.081Z,98.18
2022-09-28T02:10:12.033Z,98.38
2022-09-28T02:11:12.022Z,98.13
2022-09-28T02:12:12.013Z,98.38
2022-09-28T02:13:12.051Z,98.28
2022-09-28T02:14:11.986Z,98.07
2022-09-28T02:15:11.974Z,98.07
2022-09-28T02:16:12.077Z,97.97
2022-09-28T02:17:11.951Z,98.22
2022-09-28T02:18:11.959Z,98.11
2022-09-28T02:19:19.617Z,98.43
2022-09-28T02:20:11.931Z,98.32
2022-09-28T02:21:11.953Z,98.22
2022-09-28T02:22:11.914Z,98.32
2022-09-28T02:23:11.970Z,98.22
2022-09-28T02:24:11.893Z,98.22
2022-09-28T02:25:11.863Z,98.32
2022-09-28T02:26:11.853Z,98.32
2022-09-28T02:27:11.857Z,98.43
2022-09-28T02:28:11.870Z,98.32
2022-09-28T02:29:11.816Z,98.37
2022-09-28T02:30:11.826Z,98.16
2022-09-28T02:31:11.863Z,98.37
2022-09-28T02:32:11.794Z,98.27
2022-09-28T02:33:11.797Z,98.47
2022-09-28T02:34:11.775Z,98.16
2022-09-28T02:35:11.770Z,98.37
2022-09-28T02:36:11.740Z,98.27
2022-09-28T02:37:11.766Z,98.41
2022-09-28T02:38:11.726Z,98.00
2022-09-28T02:39:11.768Z,98.00
2022-09-28T02:40:11.707Z,97.07
2022-09-28T02:41:11.713Z,97.59
2022-09-28T02:42:11.671Z,97.49
2022-09-28T02:43:11.659Z,97.38
2022-09-28T02:44:11.668Z,97.38
2022-09-28T02:45:11.669Z,97.63
2022-09-28T02:46:11.708Z,97.69
2022-09-28T02:47:11.632Z,97.53
2022-09-28T02:48:11.605Z,97.84
2022-09-28T02:49:21.409Z,97.22
2022-09-28T02:50:12.599Z,97.11
2022-09-28T02:51:11.568Z,96.91
2022-09-28T02:52:11.574Z,97.32
2022-09-28T02:53:11.545Z,96.80
2022-09-28T02:54:15.437Z,96.85
2022-09-28T02:55:12.538Z,97.16
2022-09-28T02:56:11.526Z,96.85
2022-09-28T02:57:11.534Z,97.36
2022-09-28T02:58:11.508Z,97.36
2022-09-28T02:59:11.513Z,97.31
2022-09-28T03:00:11.485Z,97.99
2022-09-28T03:01:11.485Z,97.93
2022-09-28T03:02:11.484Z,97.72
2022-09-28T03:03:11.482Z,97.93
2022-09-28T03:04:11.444Z,98.24
2022-09-28T03:05:11.411Z,98.13
2022-09-28T03:06:11.418Z,98.40
2022-09-28T03:07:11.407Z,98.34
2022-09-28T03:08:11.376Z,98.24
2022-09-28T03:09:11.389Z,98.65
2022-09-28T03:10:11.403Z,98.40
2022-09-28T03:11:11.362Z,98.61
2022-09-28T03:12:11.336Z,98.82
2022-09-28T03:13:11.341Z,99.33
2022-09-28T03:14:11.309Z,99.13
2022-09-28T03:15:11.299Z,98.92
2022-09-28T03:16:11.349Z,99.13
2022-09-28T03:17:11.296Z,99.23
2022-09-28T03:18:11.287Z,99.60
2022-09-28T03:19:11.255Z,99.91
2022-09-28T03:20:11.245Z,99.99
2022-09-28T03:21:11.234Z,99.96
2022-09-28T03:22:11.238Z,99.99
2022-09-28T03:23:26.626Z,99.60
2022-09-28T03:24:12.199Z,99.86
2022-09-28T03:25:11.185Z,99.65
2022-09-28T03:26:11.176Z,99.86
2022-09-28T03:27:11.223Z,99.44
2022-09-28T03:28:11.166Z,99.65
2022-09-28T03:29:11.237Z,99.65
2022-09-28T03:30:11.133Z,99.76
2022-09-28T03:31:11.217Z,99.76
2022-09-28T03:32:11.132Z,99.86
2022-09-28T03:33:11.101Z,99.55
2022-09-28T03:34:11.164Z,99.44
2022-09-28T03:35:11.127Z,99.34
2022-09-28T03:36:11.123Z,99.19
2022-09-28T03:37:11.067Z,99.14
2022-09-28T03:38:11.058Z,98.52
2022-09-28T03:39:11.123Z,99.14
2022-09-28T03:40:11.036Z,98.93
2022-09-28T03:41:11.040Z,99.04
2022-09-28T03:42:11.014Z,99.14
2022-09-28T03:43:11.002Z,99.14
2022-09-28T03:44:10.972Z,98.93
2022-09-28T03:45:10.983Z,98.41
2022-09-28T03:46:11.062Z,98.31
2022-09-28T03:47:10.936Z,98.31
2022-09-28T03:48:10.982Z,98.21
2022-09-28T03:49:11.071Z,98.10
2022-09-28T03:50:11.140Z,98.31
2022-09-28T03:51:10.911Z,97.59
2022-09-28T03:52:10.937Z,97.38
2022-09-28T03:53:10.919Z,97.28
2022-09-28T03:54:10.992Z,97.49
2022-09-28T03:55:10.855Z,97.38
2022-09-28T03:56:10.888Z,97.49
2022-09-28T03:57:10.826Z,97.49
2022-09-28T03:58:10.819Z,98.21
2022-09-28T03:59:10.912Z,98.10
2022-09-28T04:00:10.793Z,98.10
2022-09-28T04:01:14.147Z,97.89
2022-09-28T04:02:11.816Z,98.21
2022-09-28T04:03:10.757Z,98.41
2022-09-28T04:04:10.798Z,98.56
2022-09-28T04:05:10.735Z,98.31
2022-09-28T04:06:10.732Z,98.21
2022-09-28T04:07:10.729Z,98.35
2022-09-28T04:08:10.717Z,98.41
2022-09-28T04:09:10.834Z,98.52
2022-09-28T04:10:10.741Z,98.52
2022-09-28T04:11:10.695Z,98.46
2022-09-28T04:12:10.689Z,98.35
2022-09-28T04:13:10.645Z,98.25
2022-09-28T04:14:10.650Z,98.35
2022-09-28T04:15:10.679Z,98.15
2022-09-28T04:16:10.723Z,98.10
2022-09-28T04:17:10.599Z,98.31
2022-09-28T04:18:10.587Z,98.31
2022-09-28T04:19:10.626Z,98.31
2022-09-28T04:20:10.589Z,98.41
2022-09-28T04:21:10.551Z,98.31
2022-09-28T04:22:10.557Z,98.41
2022-09-28T04:23:10.552Z,98.05
2022-09-28T04:24:10.518Z,98.05
2022-09-28T04:25:10.526Z,98.35
2022-09-28T04:26:10.519Z,98.05
2022-09-28T04:27:10.486Z,97.32
2022-09-28T04:28:10.512Z,97.42
2022-09-28T04:29:10.471Z,97.63
2022-09-28T04:30:10.457Z,97.42
2022-09-28T04:31:10.481Z,97.42
2022-09-28T04:32:10.431Z,97.53
2022-09-28T04:33:10.418Z,97.53
2022-09-28T04:34:10.430Z,97.42
2022-09-28T04:35:10.419Z,97.32
2022-09-28T04:36:10.394Z,98.15
2022-09-28T04:37:10.373Z,97.84
2022-09-28T04:38:11.006Z,98.35
2022-09-28T04:39:10.396Z,98.05
2022-09-28T04:40:10.347Z,97.94
2022-09-28T04:41:10.384Z,98.15
2022-09-28T04:42:10.356Z,98.46
2022-09-28T04:43:10.307Z,98.41
2022-09-28T04:44:10.354Z,98.10
2022-09-28T04:45:10.305Z,98.25
2022-09-28T04:46:10.335Z,98.05
2022-09-28T04:47:10.283Z,97.59
2022-09-28T04:48:10.257Z,98.35
2022-09-28T04:49:10.300Z,98.25
2022-09-28T04:50:10.249Z,98.41
2022-09-28T04:51:10.220Z,98.52
2022-09-28T04:52:13.541Z,98.31
2022-09-28T04:53:11.197Z,98.10
2022-09-28T04:54:10.179Z,98.31
2022-09-28T04:55:10.230Z,98.41
2022-09-28T04:56:10.168Z,98.31
2022-09-28T04:57:10.152Z,98.41
2022-09-28T04:58:10.142Z,98.31
2022-09-28T04:59:10.192Z,97.89
2022-09-28T05:00:10.141Z,98.10
2022-09-28T05:01:10.189Z,98.41
2022-09-28T05:02:10.162Z,98.10
2022-09-28T05:03:10.099Z,98.00
2022-09-28T05:04:10.077Z,97.79
2022-09-28T05:05:10.088Z,98.21
2022-09-28T05:06:10.048Z,98.10
2022-09-28T05:07:10.056Z,97.79
2022-09-28T05:08:10.030Z,97.38
2022-09-28T05:09:10.142Z,97.49
2022-09-28T05:10:10.009Z,97.49
2022-09-28T05:11:10.062Z,97.85
2022-09-28T05:12:09.976Z,96.82
2022-09-28T05:13:09.970Z,97.13
2022-09-28T05:14:10.031Z,96.61
2022-09-28T05:15:09.945Z,96.92
2022-09-28T05:16:09.992Z,97.23
2022-09-28T05:17:09.973Z,97.13
2022-09-28T05:18:09.909Z,96.61
2022-09-28T05:19:10.022Z,96.92
2022-09-28T05:20:09.924Z,96.92
2022-09-28T05:21:09.900Z,96.72
2022-09-28T05:22:09.895Z,96.72
2022-09-28T05:23:09.861Z,96.82
2022-09-28T05:24:09.845Z,96.72
2022-09-28T05:25:09.831Z,96.82
2022-09-28T05:26:09.822Z,97.23
2022-09-28T05:27:09.862Z,97.02
2022-09-28T05:28:09.798Z,96.82
2022-09-28T05:29:09.787Z,96.72
2022-09-28T05:30:09.771Z,96.51
2022-09-28T05:31:09.779Z,96.92
2022-09-28T05:32:09.830Z,96.61
2022-09-28T05:33:09.799Z,96.09
2022-09-28T05:34:09.728Z,96.09
2022-09-28T05:35:09.743Z,96.51
2022-09-28T05:36:09.728Z,96.51
2022-09-28T05:37:09.688Z,96.72
2022-09-28T05:38:09.690Z,95.99
2022-09-28T05:39:09.737Z,96.26
2022-09-28T05:40:09.660Z,96.26
2022-09-28T05:41:09.744Z,95.57
2022-09-28T05:42:09.636Z,94.96
2022-09-28T05:43:09.635Z,95.02
2022-09-28T05:44:09.615Z,95.68
2022-09-28T05:45:09.635Z,95.68
2022-09-28T05:46:09.639Z,95.84
2022-09-28T05:47:09.598Z,95.64
2022-09-28T05:48:09.695Z,96.15
2022-09-28T05:49:09.565Z,96.15
2022-09-28T05:50:09.547Z,96.05
2022-09-28T05:51:09.613Z,96.15
2022-09-28T05:52:09.541Z,96.67
2022-09-28T05:53:09.515Z,96.77
2022-09-28T05:54:09.500Z,96.67
2022-09-28T05:55:09.495Z,96.36
2022-09-28T05:56:09.483Z,96.47
2022-09-28T05:57:09.523Z,96.47
2022-09-28T05:58:09.454Z,96.56
2022-09-28T05:59:09.443Z,97.08
2022-09-28T06:00:09.449Z,97.19
2022-09-28T06:01:09.483Z,96.77
2022-09-28T06:02:09.464Z,96.67
2022-09-28T06:03:09.702Z,96.83
2022-09-28T06:04:09.385Z,96.62
2022-09-28T06:05:09.375Z,96.67
2022-09-28T06:06:09.388Z,96.62
2022-09-28T06:07:09.368Z,96.62
2022-09-28T06:08:09.340Z,96.52
2022-09-28T06:09:09.386Z,96.83
2022-09-28T06:10:09.325Z,96.36
2022-09-28T06:11:09.305Z,96.52
2022-09-28T06:12:09.293Z,96.42
2022-09-28T06:13:09.299Z,96.31
2022-09-28T06:14:09.269Z,96.11
2022-09-28T06:15:09.298Z,96.67
2022-09-28T06:16:09.301Z,96.01
2022-09-28T06:17:09.319Z,95.90
2022-09-28T06:18:09.226Z,95.80
2022-09-28T06:19:09.212Z,96.42
2022-09-28T06:20:09.204Z,96.62
2022-09-28T06:21:09.243Z,96.01
2022-09-28T06:22:09.203Z,96.42
2022-09-28T06:23:09.194Z,96.31
2022-09-28T06:24:09.160Z,96.11
2022-09-28T06:25:09.150Z,95.90
2022-09-28T06:26:09.161Z,96.11
2022-09-28T06:27:09.135Z,96.01
2022-09-28T06:28:09.113Z,96.11
2022-09-28T06:29:09.103Z,96.01
2022-09-28T06:30:09.093Z,96.11
2022-09-28T06:31:09.170Z,96.21
2022-09-28T06:32:09.086Z,96.11
2022-09-28T06:33:09.083Z,96.06
2022-09-28T06:34:09.042Z,96.06
2022-09-28T06:35:09.034Z,96.27
2022-09-28T06:36:09.040Z,96.11
2022-09-28T06:37:09.008Z,95.80
2022-09-28T06:38:09.000Z,96.58
2022-09-28T06:39:09.010Z,96.79
2022-09-28T06:40:08.978Z,96.89
2022-09-28T06:41:08.985Z,96.06
2022-09-28T06:42:08.956Z,96.58
2022-09-28T06:43:08.954Z,96.48
2022-09-28T06:44:08.956Z,96.27
2022-09-28T06:45:08.934Z,96.79
2022-09-28T06:46:08.979Z,97.09
2022-09-28T06:47:08.892Z,97.20
2022-09-28T06:48:08.898Z,97.20
2022-09-28T06:49:08.875Z,96.99
2022-09-28T06:50:08.861Z,96.89
2022-09-28T06:51:08.894Z,96.89
2022-09-28T06:52:08.845Z,96.99
2022-09-28T06:53:08.832Z,96.69
2022-09-28T06:54:08.816Z,97.09
2022-09-28T06:55:08.823Z,96.99
2022-09-28T06:56:08.813Z,97.30
2022-09-28T06:57:08.816Z,97.72
2022-09-28T06:58:08.777Z,97.72
2022-09-28T06:59:08.768Z,97.47
2022-09-28T07:00:08.775Z,97.61
2022-09-28T07:01:08.829Z,97.51
2022-09-28T07:02:08.780Z,96.99
2022-09-28T07:03:08.745Z,97.30
2022-09-28T07:04:08.780Z,97.82
2022-09-28T07:05:08.705Z,97.82
2022-09-28T07:06:08.728Z,97.72
2022-09-28T07:07:08.687Z,97.82
2022-09-28T07:08:08.699Z,97.30
2022-09-28T07:09:27.335Z,98.02
2022-09-28T07:10:09.705Z,98.13
2022-09-28T07:11:08.708Z,98.02
2022-09-28T07:12:08.644Z,98.02
2022-09-28T07:13:16.575Z,98.02
2022-09-28T07:14:15.717Z,98.23
2022-09-28T07:15:09.682Z,97.82
2022-09-28T07:16:08.800Z,98.02
2022-09-28T07:17:13.616Z,97.82
2022-09-28T07:18:09.705Z,98.02
2022-09-28T07:19:08.677Z,97.72
2022-09-28T07:20:18.496Z,98.38
2022-09-28T07:21:16.440Z,98.13
2022-09-28T07:22:09.556Z,98.28
2022-09-28T07:23:18.059Z,98.38
2022-09-28T07:24:09.564Z,97.92
2022-09-28T07:25:08.474Z,98.38
2022-09-28T07:26:09.321Z,98.28
2022-09-28T07:27:08.460Z,98.18
2022-09-28T07:28:08.432Z,98.38
2022-09-28T07:29:08.427Z,98.28
2022-09-28T07:30:08.460Z,98.28
2022-09-28T07:31:08.529Z,98.28
2022-09-28T07:32:08.415Z,98.18
2022-09-28T07:33:08.376Z,99.10
2022-09-28T07:34:08.391Z,99.99
2022-09-28T07:35:09.779Z,99.99
2022-09-28T07:36:08.894Z,98.85
2022-09-28T07:37:08.358Z,99.21
2022-09-28T07:38:08.578Z,99.31
2022-09-28T07:39:08.363Z,99.16
2022-09-28T07:40:08.410Z,99.00
2022-09-28T07:41:08.413Z,98.75
2022-09-28T07:42:08.581Z,99.16
2022-09-28T07:43:08.336Z,99.00
2022-09-28T07:44:08.287Z,99.31
2022-09-28T07:46:18.721Z,98.69
2022-09-28T07:47:18.607Z,98.58
2022-09-28T07:48:18.678Z,98.28
2022-09-28T07:49:18.692Z,98.90
2022-09-28T07:50:18.569Z,98.18
2022-09-28T07:51:18.511Z,99.05
2022-09-28T07:52:18.451Z,98.58
2022-09-28T07:53:18.413Z,98.53
2022-09-28T07:54:26.678Z,98.53
2022-09-28T07:55:18.687Z,99.05
2022-09-28T07:56:19.281Z,99.25
2022-09-28T07:57:21.554Z,99.31
2022-09-28T07:58:18.498Z,98.79
2022-09-28T07:59:18.817Z,98.90
2022-09-28T08:00:18.496Z,99.52
2022-09-28T08:01:18.482Z,99.41
2022-09-28T08:02:18.421Z,98.90
2022-09-28T08:03:18.292Z,99.21
2022-09-28T08:04:18.285Z,99.31
2022-09-28T08:05:26.060Z,99.72
2022-09-28T08:06:18.558Z,99.62
2022-09-28T08:07:21.661Z,99.82
2022-09-28T08:08:19.375Z,99.47
2022-09-28T08:09:18.420Z,99.06
2022-09-28T08:10:18.317Z,98.90
2022-09-28T08:11:18.258Z,99.00
2022-09-28T08:12:18.180Z,99.52
2022-09-28T08:13:18.201Z,99.47
2022-09-28T08:14:18.332Z,99.57
2022-09-28T08:15:18.166Z,99.68
2022-09-28T08:16:18.243Z,99.78
2022-09-28T08:17:18.129Z,99.68
2022-09-28T08:18:18.120Z,99.78
2022-09-28T08:19:18.301Z,99.57
2022-09-28T08:20:18.159Z,99.63
2022-09-28T08:21:18.112Z,99.63
2022-09-28T08:22:18.065Z,99.84
2022-09-28T08:23:18.098Z,99.43
2022-09-28T08:24:18.182Z,99.79
2022-09-28T08:25:18.090Z,98.50
2022-09-28T08:26:18.205Z,98.08
2022-09-28T08:27:18.011Z,97.98
2022-09-28T08:28:18.029Z,98.03
2022-09-28T08:29:18.062Z,98.14
2022-09-28T08:30:18.435Z,97.98
2022-09-28T08:31:18.074Z,98.08
2022-09-28T08:32:17.974Z,97.94
2022-09-28T08:33:17.951Z,98.61
2022-09-28T08:34:18.043Z,98.41
2022-09-28T08:35:17.973Z,97.73
2022-09-28T08:36:17.925Z,96.59
2022-09-28T08:37:18.059Z,96.70
2022-09-28T08:38:17.900Z,97.83
2022-09-28T08:39:17.882Z,98.24
2022-09-28T08:40:17.948Z,97.99
2022-09-28T08:41:17.874Z,98.14
2022-09-28T08:42:17.897Z,98.20
2022-09-28T08:43:17.845Z,98.61
2022-09-28T08:50:14.122Z,97.95
2022-09-28T08:51:13.688Z,98.05
2022-09-28T08:52:14.149Z,98.11
2022-09-28T08:53:13.698Z,98.11
2022-09-28T08:54:13.748Z,97.80
2022-09-28T08:55:13.859Z,97.69
2022-09-28T08:56:13.828Z,97.08
2022-09-28T08:57:13.912Z,96.97
2022-09-28T08:58:13.632Z,97.14
2022-09-28T08:59:13.718Z,97.34
2022-09-28T09:00:13.733Z,97.24
2022-09-28T09:01:13.703Z,97.03
2022-09-28T09:02:13.575Z,97.44
2022-09-28T09:03:13.643Z,96.78
2022-09-28T09:04:13.765Z,96.47
2022-09-28T09:05:13.632Z,96.27
2022-09-28T09:06:18.152Z,96.27
2022-09-28T09:07:14.547Z,96.78
2022-09-28T09:08:13.486Z,97.15
2022-09-28T09:09:13.486Z,96.22
2022-09-28T09:10:13.488Z,96.33
2022-09-28T09:11:13.595Z,96.22
2022-09-28T09:12:13.609Z,96.53
2022-09-28T09:13:13.501Z,96.33
2022-09-28T09:14:13.559Z,95.97
2022-09-28T09:15:13.481Z,96.18
2022-09-28T09:16:15.562Z,96.69
2022-09-28T09:17:13.462Z,96.80
2022-09-28T09:18:15.550Z,96.39
2022-09-28T09:19:13.526Z,96.44
2022-09-28T09:20:13.415Z,96.23
2022-09-28T09:21:13.352Z,95.10
2022-09-28T09:22:13.336Z,94.90
2022-09-28T09:23:13.369Z,94.54
2022-09-28T09:24:13.411Z,94.95
2022-09-28T09:25:13.309Z,94.84
2022-09-28T09:26:15.153Z,95.01
2022-09-28T09:27:13.265Z,95.42
2022-09-28T09:28:13.286Z,94.29
2022-09-28T09:29:13.235Z,94.49
2022-09-28T09:30:14.304Z,94.18
2022-09-28T09:31:13.317Z,94.49
2022-09-28T09:32:13.434Z,93.87
2022-09-28T09:33:13.181Z,93.82
2022-09-28T09:34:13.214Z,94.12
2022-09-28T09:35:13.199Z,94.43
2022-09-28T09:36:13.153Z,94.02
2022-09-28T09:37:13.224Z,94.23
2022-09-28T09:38:13.197Z,94.23
2022-09-28T09:39:13.167Z,94.23
2022-09-28T09:40:13.166Z,94.59
2022-09-28T09:42:13.106Z,94.80
2022-09-28T09:43:13.064Z,94.34
2022-09-28T09:44:13.170Z,94.45
2022-09-28T09:45:13.068Z,94.14
2022-09-28T09:46:13.157Z,94.34
2022-09-28T09:47:13.092Z,94.14
2022-09-28T09:48:13.045Z,94.34
2022-09-28T09:49:13.058Z,94.14
2022-09-28T09:50:13.029Z,93.93
2022-09-28T09:51:13.036Z,93.83
2022-09-28T09:52:12.948Z,93.63
2022-09-28T09:53:12.997Z,93.63
2022-09-28T09:54:13.024Z,93.83
2022-09-28T09:55:12.981Z,93.83
2022-09-28T09:56:12.918Z,93.73
2022-09-28T09:57:12.941Z,93.98
2022-09-28T09:58:12.961Z,94.29
2022-09-28T09:59:12.948Z,94.18
2022-09-28T10:00:12.961Z,94.29
2022-09-28T10:01:13.162Z,94.70
2022-09-28T10:02:13.077Z,94.39
2022-09-28T10:03:13.175Z,94.70
2022-09-28T10:04:12.912Z,94.49
2022-09-28T10:05:13.024Z,94.49
2022-09-28T10:06:12.926Z,94.74
2022-09-28T10:07:13.950Z,94.95
2022-09-28T10:08:12.978Z,94.84
2022-09-28T10:09:13.014Z,95.15
2022-09-28T10:10:12.949Z,95.05
2022-09-28T10:11:12.886Z,96.08
2022-09-28T10:12:13.135Z,95.77
2022-09-28T10:13:13.030Z,95.67
2022-09-28T10:14:13.147Z,95.67
2022-09-28T10:15:12.991Z,96.03
2022-09-28T10:16:13.740Z,95.62
2022-09-28T10:17:12.794Z,95.52
2022-09-28T10:18:12.775Z,95.46
2022-09-28T10:19:12.885Z,96.18
2022-09-28T10:20:12.884Z,96.18
2022-09-28T10:21:12.827Z,96.08
2022-09-28T10:22:13.627Z,95.56
2022-09-28T10:23:12.958Z,95.46
2022-09-28T10:24:12.883Z,95.20
2022-09-28T10:25:12.620Z,96.02
2022-09-28T10:26:12.581Z,95.92
2022-09-28T10:27:12.555Z,96.33
2022-09-28T10:28:12.546Z,97.36
2022-09-28T10:29:12.532Z,96.73
2022-09-28T10:30:12.532Z,96.94
2022-09-28T10:31:12.500Z,97.36
2022-09-28T10:32:12.510Z,96.02
2022-09-28T10:33:12.511Z,96.27
2022-09-28T10:34:12.492Z,96.78
2022-09-28T10:35:12.475Z,96.47
2022-09-28T10:36:12.455Z,96.68
2022-09-28T10:37:12.433Z,96.72
2022-09-28T10:38:12.424Z,96.42
2022-09-28T10:39:12.444Z,97.24
2022-09-28T10:40:12.418Z,96.83
2022-09-28T10:41:12.396Z,97.55
2022-09-28T10:42:12.398Z,97.44
2022-09-28T10:43:12.365Z,97.55
2022-09-28T10:44:12.371Z,97.08
2022-09-28T10:45:12.380Z,96.88
2022-09-28T10:46:12.404Z,97.65
2022-09-28T10:47:12.351Z,97.55
2022-09-28T10:48:12.308Z,98.02
2022-09-28T10:49:12.301Z,98.07
2022-09-28T10:50:12.287Z,98.69
2022-09-28T10:51:12.302Z,98.69
2022-09-28T10:52:12.263Z,99.37
2022-09-28T10:53:12.275Z,99.26
2022-09-28T10:54:12.249Z,99.05
2022-09-28T10:55:12.232Z,98.39
2022-09-28T10:56:12.217Z,97.67
2022-09-28T10:57:13.517Z,97.88
2022-09-28T10:58:12.210Z,98.29
2022-09-28T10:59:12.187Z,98.08
2022-09-28T11:00:12.181Z,97.67
2022-09-28T11:01:12.212Z,97.67
2022-09-28T11:02:12.254Z,97.73
2022-09-28T11:03:12.152Z,97.94
2022-09-28T11:04:12.127Z,97.73
2022-09-28T11:05:12.121Z,96.40
2022-09-28T11:06:12.106Z,95.68
2022-09-28T11:07:13.328Z,96.03
2022-09-28T11:08:12.080Z,96.09
2022-09-28T11:09:12.094Z,95.89
2022-09-28T11:10:12.059Z,96.09
2022-09-28T11:11:12.051Z,95.57
2022-09-28T11:12:12.064Z,95.83
2022-09-28T11:13:12.066Z,95.72
2022-09-28T11:14:12.038Z,96.03
2022-09-28T11:15:12.067Z,95.93
2022-09-28T11:16:12.092Z,95.93
2022-09-28T11:17:12.081Z,95.56
2022-09-28T11:18:12.028Z,95.52
2022-09-28T11:19:11.986Z,95.67
2022-09-28T11:20:11.952Z,96.08
2022-09-28T11:21:13.194Z,95.87
2022-09-28T11:22:13.990Z,96.44
2022-09-28T11:23:11.920Z,96.08
2022-09-28T11:24:16.677Z,94.17
2022-09-28T11:25:12.955Z,94.68
2022-09-28T11:26:14.853Z,94.68
2022-09-28T11:27:12.873Z,94.78
2022-09-28T11:28:11.886Z,95.03
2022-09-28T11:29:11.898Z,95.55
2022-09-28T11:30:11.858Z,96.17
2022-09-28T11:31:11.924Z,96.06
2022-09-28T11:32:15.684Z,95.96
2022-09-28T11:33:11.885Z,96.37
2022-09-28T11:34:11.844Z,96.78
2022-09-28T11:35:11.805Z,96.68
2022-09-28T11:36:11.859Z,96.78
2022-09-28T11:37:11.854Z,96.52
2022-09-28T11:38:11.867Z,97.14
2022-09-28T11:39:11.833Z,97.55
2022-09-28T11:40:11.875Z,97.55
2022-09-28T11:41:11.738Z,97.65
2022-09-28T11:42:16.104Z,96.83
2022-09-28T11:43:14.399Z,96.93
2022-09-28T11:44:11.754Z,97.86
2022-09-28T11:45:11.734Z,97.86
2022-09-28T11:46:11.749Z,97.75
2022-09-28T11:47:11.677Z,97.81
2022-09-28T11:48:11.651Z,97.81
2022-09-28T11:49:11.670Z,97.91
2022-09-28T11:50:11.666Z,97.81
2022-09-28T11:51:11.696Z,97.81
2022-09-28T11:52:11.600Z,97.81
2022-09-28T11:53:11.593Z,98.49
2022-09-28T11:54:11.671Z,98.07
2022-09-28T11:55:11.588Z,98.18
2022-09-28T11:56:11.561Z,97.87
2022-09-28T11:57:11.557Z,97.82
2022-09-28T11:58:11.552Z,97.41
2022-09-28T11:59:11.527Z,97.72
2022-09-28T12:00:11.561Z,97.92
2022-09-28T12:01:14.339Z,97.31
2022-09-28T12:02:12.630Z,97.82
2022-09-28T12:03:11.540Z,97.88
2022-09-28T12:04:11.651Z,98.19
2022-09-28T12:05:11.520Z,97.63
2022-09-28T12:06:11.433Z,97.22
2022-09-28T12:07:11.471Z,97.53
2022-09-28T12:08:11.425Z,96.81
2022-09-28T12:09:11.450Z,95.62
2022-09-28T12:10:11.506Z,96.03
2022-09-28T12:11:11.385Z,95.93
2022-09-28T12:12:11.367Z,95.98
2022-09-28T12:13:11.366Z,96.25
2022-09-28T12:14:11.341Z,96.04
2022-09-28T12:15:11.470Z,95.84
2022-09-28T12:16:44.224Z,95.84
2022-09-28T12:17:14.456Z,96.31
2022-09-28T12:18:12.432Z,96.20
2022-09-28T12:19:11.405Z,96.62
2022-09-28T12:20:11.425Z,96.47
2022-09-28T12:21:11.310Z,96.06
2022-09-28T12:22:11.370Z,95.75
2022-09-28T12:23:11.344Z,95.75
2022-09-28T12:24:11.279Z,95.65
2022-09-28T12:25:11.298Z,94.73
2022-09-28T12:26:11.440Z,94.67
2022-09-28T12:27:11.328Z,94.26
2022-09-28T12:28:11.278Z,94.51
2022-09-28T12:29:11.406Z,94.61
2022-09-28T12:30:11.258Z,95.32
2022-09-28T12:31:11.347Z,95.43
2022-09-28T12:32:11.251Z,95.84
2022-09-28T12:33:11.261Z,95.84
2022-09-28T12:34:11.286Z,95.53
2022-09-28T12:35:11.213Z,94.81
2022-09-28T12:36:11.188Z,94.81
2022-09-28T12:37:11.190Z,95.84
2022-09-28T12:38:11.179Z,95.59
2022-09-28T12:39:27.196Z,95.39
2022-09-28T12:40:12.072Z,96.41
2022-09-28T12:41:11.089Z,96.37
2022-09-28T12:42:11.110Z,96.98
2022-09-28T12:43:11.066Z,96.06
2022-09-28T12:44:11.038Z,95.34
2022-09-28T12:45:11.028Z,94.52
2022-09-28T12:46:12.665Z,94.32
2022-09-28T12:47:11.020Z,94.78
2022-09-28T12:48:10.968Z,94.37
2022-09-28T12:50:01.825Z,94.07
2022-09-28T12:51:11.932Z,93.62
2022-09-28T12:52:10.920Z,93.67
2022-09-28T12:53:10.931Z,93.92
2022-09-28T12:54:10.982Z,92.49
2022-09-28T12:56:10.919Z,92.55
2022-09-28T12:57:10.868Z,92.14
2022-09-28T12:58:10.848Z,92.44
2022-09-28T12:59:10.863Z,91.63
2022-09-28T13:00:10.851Z,91.46
2022-09-28T13:01:10.854Z,91.87
2022-09-28T13:02:10.854Z,91.46